Latest Coastal Weather Observations for Hobart Airport

IDT60701

Issued at 6:35 pm EDT Friday 31 October 2014 (issued every 10 minutes, with the page automatically refreshed every 10 minutes)

About coastal observations | Map of coastal stations | Coastal observations for TAS | Marine services | Other Formats
Station Details ID: 094008 Name: HOBART AIRPORT Lat: -42.83 Lon: 147.50 Height: 4.0 m
Data from the previous 72 hours. | See also: Recent months at Hobart Airport
Date/Time
EDT
Temp

°C
Wind Pressure Rain
since 9am
mm
Weather Cloud Vis
km
Sea
Height
m
Swell
Dir
 
Speed
knots
Gust
knots
hPa Trend Height
m
Period
s
Dir
31/06:30pm 20.9 N 11 15 995.3 - 0.0 - - 10 - - - -
31/06:00pm 21.5 N 11 17 995.8 F 0.0 Fine Partly cloudy 35 - - - -
31/05:30pm 21.6 N 9 14 996.1 - 0.0 - Mostly clear 10 - - - -
31/05:00pm 23.0 NW 11 16 996.9 - 0.0 - Mostly clear 10 - - - -
31/04:30pm 21.2 NNW 9 15 997.7 - 0.0 - Mostly clear 10 - - - -
31/04:00pm 20.5 NNW 11 18 998.3 - 0.0 - Mostly clear 10 - - - -
31/03:30pm 20.0 NNW 10 15 999.2 - 0.0 - Mostly clear 10 - - - -
31/03:00pm 19.6 N 8 14 999.8 F 0.0 Showers Mostly cloudy 30 - - - -
31/02:30pm 19.4 NNW 13 18 1000.3 - 0.0 - Partly cloudy 10 - - - -
31/02:00pm 19.9 NNW 10 16 1000.4 - 0.0 - Mostly clear 10 - - - -
31/01:30pm 18.7 NNW 12 16 1000.6 - 0.0 - Mostly clear 10 - - - -
31/01:00pm 18.6 N 9 15 1000.8 - 0.0 - Mostly clear 10 - - - -
31/12:30pm 17.7 NNW 11 17 1001.7 - 0.0 - Mostly clear 10 - - - -
31/12:00pm 17.4 NNW 10 16 1001.8 F 0.0 Fine Mostly cloudy 35 - - - -
31/11:30am 17.0 N 9 15 1002.3 - 0.0 - Mostly clear 10 - - - -
31/11:00am 17.1 N 9 13 1003.0 - 0.0 - Mostly clear 10 - - - -
31/10:30am 15.7 N 10 15 1003.5 - 0.0 - Mostly clear 10 - - - -
31/10:00am 15.4 N 8 12 1004.2 - 0.0 - Mostly clear 10 - - - -
31/09:30am 14.8 N 9 14 1004.1 - 0.0 - Mostly clear 10 - - - -
31/09:00am 14.4 N 11 15 1004.5 F 0.0 Fine Mostly cloudy 40 - - - -
31/08:30am 14.7 N 9 14 1004.6 - 0.0 - Mostly clear 10 - - - -
31/08:00am 14.1 N 8 11 1005.2 - 0.0 - Mostly clear 10 - - - -
31/07:30am 13.0 NNW 8 12 1005.2 - 0.0 - Mostly clear 10 - - - -
31/07:00am 12.5 NNW 7 9 1005.3 - 0.0 - Mostly clear 10 - - - -
31/06:30am 12.2 NNW 8 11 1005.2 - 0.0 - Mostly clear 10 - - - -
31/06:00am 11.3 N 8 10 1005.4 F 0.0 Fine Mostly cloudy 40 - - - -
31/05:30am 12.1 NNW 7 9 1005.2 - 0.0 - Partly cloudy 10 - - - -
31/05:00am 12.7 NNW 9 12 1005.4 - 0.0 - Partly cloudy 10 - - - -
31/04:30am 12.1 NNW 7 9 1005.7 - 0.0 - Partly cloudy 10 - - - -
31/04:00am 10.8 WNW 5 6 1006.1 - 0.0 - Partly cloudy 10 - - - -
31/03:30am 10.7 W 4 5 1006.3 - 0.0 - Partly cloudy 10 - - - -
31/03:00am 10.0 WNW 4 5 1006.5 F 0.0 Fine Mostly cloudy 35 - - - -
31/02:30am 10.5 NW 6 7 1006.9 - 0.0 - - 10 - - - -
31/02:00am 10.8 NNW 7 8 1007.1 - 0.0 - - 10 - - - -
31/01:30am 11.0 NNW 7 9 1007.5 - 0.0 - Mostly clear 10 - - - -
31/01:00am 9.8 NNW 6 9 1008.0 - 0.0 - Mostly clear 10 - - - -
31/12:30am 11.1 NNW 6 8 1008.3 - 0.0 - Mostly clear 10 - - - -
31/12:00am 11.8 N 6 7 1008.5 F 0.0 Fine Mostly clear 10 - - - -
 
Date/Time
EDT
Temp

°C
Wind Pressure Rain
since 9am
mm
Weather Cloud Vis
km
Sea
Height
m
Swell
Dir
 
Speed
knots
Gust
knots
hPa Trend Height
m
Period
s
Dir
30/11:30pm 11.4 N 3 5 1008.6 - 0.0 - Mostly clear 10 - - - -
30/11:00pm 12.2 NNW 5 7 1008.9 - 0.0 - Mostly clear 10 - - - -
30/10:30pm 12.1 NNW 4 6 1009.1 - 0.0 - Mostly clear 10 - - - -
30/10:00pm 12.2 N 6 9 1009.1 - 0.0 - Mostly clear 10 - - - -
30/09:30pm 12.7 NNE 7 9 1009.0 - 0.0 - Mostly clear 10 - - - -
30/09:00pm 12.6 NNW 8 10 1009.1 F 0.0 Fine Mostly cloudy 35 - - - -
30/08:30pm 13.9 NW 10 15 1008.7 - 0.0 - Mostly clear 10 - - - -
30/08:00pm 14.0 NW 7 11 1008.5 - 0.0 - Mostly clear 10 - - - -
30/07:30pm 14.5 W 9 13 1008.4 - 0.0 - Mostly clear 10 - - - -
30/07:00pm 14.7 NW 5 9 1008.2 - 0.0 - Mostly clear 10 - - - -
30/06:30pm 14.7 WNW 8 11 1008.0 - 0.0 - Mostly clear 10 - - - -
30/06:00pm 15.2 W 14 17 1007.9 R 0.0 Showers Mostly cloudy 25 - - - -
30/05:30pm 15.7 WSW 8 10 1007.7 - 0.0 - Mostly clear 10 - - - -
30/05:00pm 14.9 SSE 7 8 1007.7 - 0.0 - Mostly clear 10 - - - -
30/04:30pm 15.9 SE 6 10 1007.6 - 0.0 - Mostly clear 10 - - - -
30/04:00pm 15.4 ESE 8 12 1007.5 - 0.0 - Mostly clear 10 - - - -
30/03:30pm 15.0 E 7 11 1007.6 - 0.0 - Mostly clear 10 - - - -
30/03:00pm 13.9 SE 6 9 1007.3 R 0.0 Showers Mostly cloudy 40 - - - -
30/02:30pm 13.3 SSE 9 14 1007.2 - 0.0 - Mostly clear 10 - - - -
30/02:00pm 13.6 SE 9 13 1007.1 - 0.0 - Mostly clear 10 - - - -
30/01:30pm 13.2 SE 11 15 1007.1 - 0.0 - Mostly clear 10 - - - -
30/01:00pm 13.9 SE 11 15 1007.1 - 0.0 - Mostly clear 10 - - - -
30/12:30pm 13.4 SE 12 16 1007.2 - 0.0 Showers Mostly clear 10 - - - -
30/12:00pm 15.0 SSE 9 12 1007.3 R 0.0 Fine Mostly cloudy 40 - - - -
30/11:30am 14.9 SSE 10 14 1007.6 - 0.0 Showers Mostly clear 10 - - - -
30/11:00am 16.5 W 11 15 1007.3 - 0.0 - Mostly clear 10 - - - -
30/10:30am 15.7 WNW 14 19 1007.3 - 0.0 - Mostly clear 10 - - - -
30/10:00am 15.3 WNW 11 15 1007.2 - 0.0 - Mostly clear 10 - - - -
30/09:30am 15.3 WNW 12 18 1007.2 - 0.0 - Mostly clear 10 - - - -
30/09:00am 14.4 NW 10 16 1007.3 R 0.2 Fine Mostly cloudy 40 - - - -
30/08:30am 13.7 N 7 10 1007.4 - 0.2 - Mostly clear 10 - - - -
30/08:00am 12.8 NNW 6 11 1007.4 - 0.2 - Mostly clear 10 - - - -
30/07:30am 12.4 N 5 7 1007.2 - 0.2 - Mostly clear 10 - - - -
30/07:00am 12.0 N 4 8 1006.9 - 0.2 - Mostly clear 10 - - - -
30/06:30am 12.0 NNW 11 16 1005.9 - 0.2 - Mostly clear 10 - - - -
30/06:00am 12.0 NW 11 15 1006.3 F 0.2 Fine Mostly cloudy 40 - - - -
30/05:30am 11.8 NNW 10 13 1006.2 - 0.2 - Mostly clear 10 - - - -
30/05:00am 11.7 NNW 9 12 1006.2 - 0.2 - Mostly clear 10 - - - -
30/04:30am 11.5 NNW 8 11 1006.3 - 0.2 - Mostly clear 10 - - - -
30/04:00am 11.5 NNW 10 14 1006.5 - 0.2 - Mostly clear 10 - - - -
30/03:30am 11.6 NNW 9 13 1006.5 - 0.2 - Mostly clear 10 - - - -
30/03:00am 12.1 N 9 14 1006.5 R 0.2 Fine Partly cloudy 40 - - - -
30/02:30am 12.8 NNW 13 19 1006.4 - 0.2 - Mostly clear 10 - - - -
30/02:00am 13.1 NNW 11 18 1006.9 - 0.2 - Partly cloudy 10 - - - -
30/01:30am 13.0 NNW 12 16 1006.7 - 0.2 - Partly cloudy 10 - - - -
30/01:00am 13.0 NNW 13 17 1006.6 - 0.2 - Mostly clear 10 - - - -
30/12:30am 13.0 NNW 13 18 1007.0 - 0.2 - Partly cloudy 10 - - - -
30/12:00am 13.0 NW 11 15 1007.0 R 0.2 Fine Mostly clear 40 - - - -
 
Date/Time
EDT
Temp

°C
Wind Pressure Rain
since 9am
mm
Weather Cloud Vis
km
Sea
Height
m
Swell
Dir
 
Speed
knots
Gust
knots
hPa Trend Height
m
Period
s
Dir
29/11:30pm 13.5 NNW 13 21 1007.0 - 0.2 - Mostly clear 10 - - - -
29/11:00pm 13.9 NNW 12 18 1007.0 - 0.2 - Mostly clear 10 - - - -
29/10:30pm 13.5 NNW 11 16 1007.1 - 0.2 - Mostly clear 10 - - - -
29/10:00pm 13.6 NNW 13 18 1007.1 - 0.2 - Partly cloudy 10 - - - -
29/09:30pm 13.5 NNW 12 18 1007.1 - 0.2 - Mostly clear 10 - - - -
29/09:00pm 13.6 NNW 14 21 1006.8 S 0.2 Fine Mostly clear 40 - - - -
29/08:30pm 14.4 NNW 15 20 1006.7 - 0.2 - Mostly clear 10 - - - -
29/08:00pm 14.5 NNW 13 19 1006.4 - 0.2 - Mostly clear 10 - - - -
29/07:30pm 15.4 NNW 14 20 1006.0 - 0.2 - Mostly clear 10 - - - -
29/07:00pm 15.9 NNW 15 19 1005.8 - 0.2 - Mostly clear 10 - - - -
29/06:30pm 17.0 NW 19 28 1005.6 - 0.2 - Mostly clear 10 - - - -
29/06:00pm 17.8 NW 23 38 1005.3 F 0.2 Fine Mostly clear 40 - - - -
29/05:38pm 18.1 WNW 20 30 1005.4 - 0.2 - Mostly clear 10 - - - -
29/05:30pm 18.2 WNW 21 26 1005.5 - 0.2 - Mostly clear 10 - - - -
29/05:04pm 18.7 WNW 15 28 1005.8 - 0.2 - Mostly clear 10 - - - -
29/05:00pm 18.6 WNW 14 24 1005.8 - 0.2 - Mostly clear 10 - - - -
29/04:30pm 19.2 WNW 17 26 1005.7 - 0.2 - Mostly clear 10 - - - -
29/04:00pm 18.3 WNW 19 31 1005.8 - 0.2 - Mostly clear 10 - - - -
29/03:47pm 17.8 WNW 17 28 1005.9 - 0.2 - Mostly clear 10 - - - -
29/03:30pm 17.5 WNW 16 23 1006.0 - 0.2 - Mostly clear 10 - - - -
29/03:12pm 17.6 WNW 15 27 1006.2 - 0.2 - Partly cloudy 10 - - - -
29/03:00pm 18.2 WNW 15 22 1006.3 F 0.2 Fine Mostly cloudy 40 - - - -
29/02:30pm 17.8 NW 17 26 1006.4 - 0.2 - Mostly clear 10 - - - -
29/02:16pm 17.8 NW 17 28 1006.6 - 0.2 - Mostly clear 10 - - - -
29/02:00pm 17.8 W 17 18 1006.7 - 0.2 - Mostly clear 10 - - - -
29/01:30pm 16.4 NW 18 27 1007.3 - 0.2 - Mostly clear 10 - - - -
29/01:00pm 15.8 NW 16 21 1007.6 - 0.0 - Partly cloudy 10 - - - -
29/12:30pm 15.2 NW 17 22 1007.9 - 0.0 - Partly cloudy 10 - - - -
29/12:00pm 15.2 NW 17 22 1008.1 F 0.0 Fine Mostly cloudy 40 - - - -
29/11:30am 15.0 WNW 16 19 1008.6 - 0.0 - Mostly cloudy 10 - - - -
29/11:00am 14.8 NW 17 22 1008.9 - 0.0 - Mostly clear 10 - - - -
29/10:30am 13.0 NW 16 21 1009.4 - 0.0 - Mostly clear 10 - - - -
29/10:00am 12.4 NW 14 17 1009.7 - 0.0 - Mostly clear 10 - - - -
29/09:30am 11.9 NNW 13 17 1009.6 - 0.0 - Mostly clear 10 - - - -
29/09:00am 12.0 NNW 12 16 1009.4 F 1.6 Haze Mostly cloudy 30 - - - -
29/08:30am 11.2 NNW 11 20 1009.6 - 1.6 - Mostly clear 10 - - - -
29/08:00am 11.3 NNW 11 16 1009.6 - 1.6 - Mostly clear 10 - - - -
29/07:30am 11.1 NW 13 18 1009.4 - 1.6 - Mostly clear 10 - - - -
29/07:00am 10.0 WNW 12 18 1009.3 - 1.6 - Mostly clear 10 - - - -
29/06:30am 9.1 WNW 11 16 1009.2 - 1.6 - Partly cloudy 10 - - - -
29/06:00am 8.6 WNW 11 15 1009.0 R 1.6 Haze Partly cloudy 25 - - - -
29/05:30am 8.3 WNW 11 13 1008.7 - 1.6 - Mostly clear 10 - - - -
29/05:00am 8.0 NW 8 10 1008.7 - 1.6 - Mostly clear 10 - - - -
29/04:30am 7.5 N 5 6 1008.3 - 1.6 - Mostly clear 10 - - - -
29/04:00am 7.8 NNE 5 7 1008.2 - 1.6 - Partly cloudy 10 - - - -
29/03:30am 6.0 NNE 6 11 1007.9 - 1.6 - Mostly clear 10 - - - -
29/03:00am 7.4 W 5 6 1007.4 R 1.6 Fine Mostly clear 30 - - - -
29/02:30am 7.9 SW 15 19 1007.6 - 1.6 - Mostly clear 10 - - - -
29/02:00am 8.5 SW 11 14 1008.0 - 1.6 - Mostly clear 10 - - - -
29/01:30am 8.6 WSW 9 14 1008.0 - 1.6 - Mostly clear 10 - - - -
29/01:00am 9.1 W 12 16 1007.6 - 1.6 - Mostly clear 10 - - - -
29/12:30am 8.2 SSW 8 10 1007.3 - 1.6 - Partly cloudy 10 - - - -
29/12:00am 8.7 SW 9 12 1006.9 R 1.6 Fine Mostly cloudy 25 - - - -
 
Date/Time
EDT
Temp

°C
Wind Pressure Rain
since 9am
mm
Weather Cloud Vis
km
Sea
Height
m
Swell
Dir
 
Speed
knots
Gust
knots
hPa Trend Height
m
Period
s
Dir
28/11:30pm 8.4 SW 10 16 1006.5 - 1.6 - Partly cloudy 10 - - - -
28/11:00pm 8.9 SW 8 10 1006.3 - 1.6 - Partly cloudy 10 - - - -
28/10:30pm 8.6 W 11 15 1005.7 - 1.6 - Mostly cloudy 10 - - - -
28/10:00pm 8.4 WNW 16 20 1005.1 - 1.6 - Mostly clear 10 - - - -
28/09:30pm 8.2 W 14 25 1004.6 - 1.6 - Mostly clear 10 - - - -
28/09:00pm 7.9 WNW 13 17 1003.8 R 1.6 Recent precip. Mostly cloudy 20 - - - -
28/08:30pm 7.7 W 21 38 1003.0 - 1.6 Showers Mostly clear 10 - - - -
28/08:26pm 7.7 W 27 38 1002.9 - 1.6 Showers Mostly clear 10 - - - -
28/08:19pm 8.0 WNW 16 22 1002.5 - 1.6 Showers Partly cloudy 10 - - - -
28/08:00pm 7.5 W 23 33 1001.9 - 1.6 - Mostly clear 10 - - - -
28/07:49pm 8.7 WSW 18 29 1001.5 - 1.4 Showers Mostly clear 6 - - - -
28/07:30pm 10.2 W 19 24 1000.5 - 1.4 - Mostly clear 10 - - - -
28/07:00pm 10.0 WNW 21 31 999.5 - 1.4 - Partly cloudy 10 - - - -
28/06:45pm 10.4 WNW 19 29 999.0 - 1.4 - Mostly clear 10 - - - -

Other Formats:

Comma delimited format used in spreadsheet applications
http://www.bom.gov.au/fwo/IDT60701/IDT60701.94975.axf

JavaScript Object Notation format (JSON) in row-major order
http://www.bom.gov.au/fwo/IDT60701/IDT60701.94975.json